createdAt,value
2023-03-22T00:00:15.363Z,33.54
2023-03-22T00:02:45.456Z,33.51
2023-03-22T00:05:14.120Z,33.55
2023-03-22T00:07:43.548Z,33.61
2023-03-22T00:10:12.431Z,33.54
2023-03-22T00:12:40.848Z,33.64
2023-03-22T00:15:11.266Z,33.49
2023-03-22T00:17:39.697Z,33.55
2023-03-22T00:20:12.919Z,33.56
2023-03-22T00:22:41.556Z,33.68
2023-03-22T00:25:11.040Z,33.69
2023-03-22T00:27:39.631Z,33.74
2023-03-22T00:30:10.750Z,33.73
2023-03-22T00:32:40.087Z,33.78
2023-03-22T00:35:12.178Z,33.78
2023-03-22T00:37:40.709Z,33.87
2023-03-22T00:40:13.047Z,33.89
2023-03-22T00:42:43.094Z,33.88
2023-03-22T00:45:14.924Z,33.95
2023-03-22T00:47:43.546Z,33.91
2023-03-22T00:50:13.765Z,34.02
2023-03-22T00:52:42.190Z,34.08
2023-03-22T00:55:10.931Z,34.15
2023-03-22T00:57:39.387Z,34.11
2023-03-22T01:00:13.731Z,34.37
2023-03-22T01:02:43.040Z,34.30
2023-03-22T01:05:16.072Z,34.29
2023-03-22T01:07:44.888Z,34.29
2023-03-22T01:10:14.119Z,34.38
2023-03-22T01:12:42.539Z,34.33
2023-03-22T01:15:12.466Z,34.29
2023-03-22T01:17:40.881Z,34.34
2023-03-22T01:20:13.079Z,34.59
2023-03-22T01:22:41.672Z,34.43
2023-03-22T01:25:11.335Z,34.48
2023-03-22T01:27:39.814Z,34.60
2023-03-22T01:30:11.652Z,34.56
2023-03-22T01:32:40.850Z,34.55
2023-03-22T01:35:10.532Z,34.67
2023-03-22T01:37:40.608Z,34.75
2023-03-22T01:40:11.739Z,34.66
2023-03-22T01:42:40.335Z,34.81
2023-03-22T01:45:41.868Z,34.70
2023-03-22T01:48:21.216Z,34.75
2023-03-22T01:51:02.988Z,34.38
2023-03-22T01:53:38.154Z,34.59
2023-03-22T01:56:08.507Z,34.52
2023-03-22T01:58:39.309Z,34.67
2023-03-22T02:01:11.087Z,34.84
2023-03-22T02:03:48.972Z,34.66
2023-03-22T02:06:17.682Z,34.67
2023-03-22T02:08:47.827Z,34.52
2023-03-22T02:11:20.905Z,34.65
2023-03-22T02:14:31.173Z,34.56
2023-03-22T02:17:20.638Z,34.54
2023-03-22T02:20:31.474Z,34.52
2023-03-22T02:23:28.144Z,34.64
2023-03-22T02:26:39.364Z,34.72
2023-03-22T02:29:14.130Z,34.63
2023-03-22T02:32:10.320Z,34.56
2023-03-22T02:35:27.456Z,34.52
2023-03-22T02:39:01.639Z,34.63
2023-03-22T02:41:43.831Z,34.78
2023-03-22T02:44:25.750Z,34.67
2023-03-22T02:47:04.044Z,34.79
2023-03-22T02:49:38.652Z,34.70
2023-03-22T02:52:17.385Z,34.80
2023-03-22T02:54:56.756Z,34.76
2023-03-22T02:57:34.989Z,34.80
2023-03-22T03:00:10.561Z,34.58
2023-03-22T03:02:41.946Z,34.81
2023-03-22T03:05:14.685Z,34.84
2023-03-22T03:07:50.503Z,34.83
2023-03-22T03:10:22.004Z,34.80
2023-03-22T03:12:50.575Z,34.85
2023-03-22T03:15:21.580Z,34.91
2023-03-22T03:18:09.997Z,34.81
2023-03-22T03:20:52.358Z,34.66
2023-03-22T03:23:33.632Z,34.68
2023-03-22T03:26:10.229Z,34.74
2023-03-22T03:28:45.071Z,34.69
2023-03-22T03:31:27.132Z,34.75
2023-03-22T03:34:06.731Z,34.64
2023-03-22T03:36:38.821Z,34.61
2023-03-22T03:39:13.685Z,34.60
2023-03-22T03:41:45.340Z,34.60
2023-03-22T03:44:14.772Z,34.64
2023-03-22T03:46:45.433Z,34.75
2023-03-22T03:49:16.465Z,34.63
2023-03-22T03:51:50.619Z,34.72
2023-03-22T03:54:19.363Z,34.68
2023-03-22T03:56:49.512Z,34.79
2023-03-22T03:59:18.783Z,34.73
2023-03-22T04:01:51.677Z,34.81
2023-03-22T04:04:26.342Z,34.91
2023-03-22T04:06:56.880Z,34.77
2023-03-22T04:09:26.948Z,35.02
2023-03-22T04:11:57.872Z,34.84
2023-03-22T04:14:27.563Z,34.87
2023-03-22T04:16:57.148Z,34.87
2023-03-22T04:19:26.059Z,35.04
2023-03-22T04:21:54.833Z,35.05
2023-03-22T04:24:23.812Z,35.14
2023-03-22T04:26:52.676Z,35.20
2023-03-22T04:29:23.216Z,35.09
2023-03-22T04:31:53.137Z,35.16
2023-03-22T04:34:21.601Z,35.16
2023-03-22T04:36:50.762Z,35.22
2023-03-22T04:39:19.445Z,35.13
2023-03-22T04:41:48.108Z,35.21
2023-03-22T04:44:16.592Z,35.32
2023-03-22T04:46:46.474Z,35.35
2023-03-22T04:49:15.144Z,35.33
2023-03-22T04:51:43.774Z,35.35
2023-03-22T04:54:12.233Z,35.34
2023-03-22T04:56:40.810Z,35.43
2023-03-22T04:59:10.861Z,35.42
2023-03-22T05:01:40.825Z,35.46
2023-03-22T05:04:10.795Z,35.56
2023-03-22T05:06:39.201Z,35.56
2023-03-22T05:09:08.155Z,35.52
2023-03-22T05:11:36.624Z,35.61
2023-03-22T05:14:05.794Z,35.55
2023-03-22T05:16:34.484Z,35.58
2023-03-22T05:19:03.098Z,35.64
2023-03-22T05:21:36.941Z,35.83
2023-03-22T05:24:06.110Z,35.84
2023-03-22T05:26:38.055Z,35.77
2023-03-22T05:29:06.876Z,35.92
2023-03-22T05:31:35.448Z,36.02
2023-03-22T05:34:03.927Z,36.08
2023-03-22T05:36:36.524Z,36.15
2023-03-22T05:39:06.077Z,36.22
2023-03-22T05:41:36.642Z,36.26
2023-03-22T05:44:06.155Z,36.25
2023-03-22T05:46:34.583Z,36.17
2023-03-22T05:49:03.049Z,36.16
2023-03-22T05:51:31.455Z,36.14
2023-03-22T05:54:01.383Z,36.21
2023-03-22T05:56:29.822Z,36.28
2023-03-22T05:58:58.431Z,36.22
2023-03-22T06:01:26.886Z,36.06
2023-03-22T06:03:55.346Z,36.16
2023-03-22T06:06:24.021Z,36.01
2023-03-22T06:08:52.565Z,35.91
2023-03-22T06:11:22.766Z,35.91
2023-03-22T06:13:51.227Z,35.82
2023-03-22T06:16:19.855Z,35.70
2023-03-22T06:18:48.394Z,35.58
2023-03-22T06:21:16.916Z,35.44
2023-03-22T06:23:45.604Z,35.39
2023-03-22T06:26:14.086Z,35.19
2023-03-22T06:28:43.936Z,35.11
2023-03-22T06:31:12.506Z,34.95
2023-03-22T06:33:40.981Z,34.86
2023-03-22T06:36:10.281Z,34.78
2023-03-22T06:38:38.747Z,34.80
2023-03-22T06:41:07.527Z,34.61
2023-03-22T06:43:35.964Z,34.49
2023-03-22T06:46:06.434Z,34.23
2023-03-22T06:48:34.934Z,34.18
2023-03-22T06:51:03.496Z,34.09
2023-03-22T06:53:31.955Z,34.09
2023-03-22T06:56:00.395Z,33.89
2023-03-22T06:58:29.072Z,34.16
2023-03-22T07:00:58.075Z,33.95
2023-03-22T07:03:28.007Z,34.00
2023-03-22T07:06:02.907Z,34.02
2023-03-22T07:08:31.505Z,33.89
2023-03-22T07:10:59.970Z,33.75
2023-03-22T07:13:28.654Z,33.68
2023-03-22T07:15:57.719Z,33.69
2023-03-22T07:18:29.208Z,33.25
2023-03-22T07:20:57.782Z,33.34
2023-03-22T07:23:26.542Z,32.94
2023-03-22T07:25:56.042Z,32.95
2023-03-22T07:28:24.912Z,33.04
2023-03-22T07:31:02.268Z,33.10
2023-03-22T07:33:32.061Z,32.92
2023-03-22T07:36:00.916Z,33.30
2023-03-22T07:38:29.384Z,33.20
2023-03-22T07:40:57.843Z,32.90
2023-03-22T07:43:26.447Z,33.16
2023-03-22T07:45:55.060Z,32.68
2023-03-22T07:48:24.728Z,32.43
2023-03-22T07:50:57.912Z,32.19
2023-03-22T07:53:26.677Z,31.84
2023-03-22T07:55:55.172Z,31.41
2023-03-22T07:58:23.616Z,31.21
2023-03-22T08:00:52.076Z,30.63
2023-03-22T08:03:22.306Z,30.69
2023-03-22T08:05:51.752Z,30.38
2023-03-22T08:08:21.829Z,30.22
2023-03-22T08:10:51.858Z,30.58
2023-03-22T08:13:20.466Z,30.09
2023-03-22T08:15:48.921Z,30.21
2023-03-22T08:18:17.339Z,29.92
2023-03-22T08:20:46.293Z,29.94
2023-03-22T08:23:16.191Z,29.92
2023-03-22T08:25:46.145Z,29.67
2023-03-22T08:28:15.916Z,29.24
2023-03-22T08:30:44.988Z,29.21
2023-03-22T08:33:14.007Z,29.17
2023-03-22T08:35:43.266Z,28.93
2023-03-22T08:38:11.733Z,29.04
2023-03-22T08:40:40.271Z,28.77
2023-03-22T08:43:10.104Z,28.65
2023-03-22T08:45:39.093Z,28.75
2023-03-22T08:48:08.265Z,28.51
2023-03-22T08:50:36.837Z,28.48
2023-03-22T08:53:05.735Z,28.42
2023-03-22T08:55:37.658Z,28.30
2023-03-22T08:58:06.513Z,28.13
2023-03-22T09:00:48.214Z,28.08
2023-03-22T09:03:17.828Z,28.03
2023-03-22T09:05:46.423Z,28.40
2023-03-22T09:08:19.122Z,28.23
2023-03-22T09:10:51.677Z,28.02
2023-03-22T09:13:21.029Z,27.99
2023-03-22T09:15:53.099Z,28.33
2023-03-22T09:18:22.469Z,28.25
2023-03-22T09:20:51.486Z,28.28
2023-03-22T09:23:20.177Z,28.05
2023-03-22T09:25:50.071Z,28.21
2023-03-22T09:28:19.264Z,28.01
2023-03-22T09:30:47.794Z,27.94
2023-03-22T09:33:17.686Z,27.88
2023-03-22T09:35:46.468Z,28.07
2023-03-22T09:38:16.192Z,28.03
2023-03-22T09:40:53.472Z,28.02
2023-03-22T09:43:22.842Z,27.79
2023-03-22T09:45:53.179Z,27.74
2023-03-22T09:48:29.955Z,27.60
2023-03-22T09:50:58.942Z,27.44
2023-03-22T09:53:30.823Z,27.34
2023-03-22T09:56:08.296Z,27.31
2023-03-22T09:58:44.336Z,27.55
2023-03-22T10:01:26.009Z,26.93
2023-03-22T10:04:31.187Z,26.95
2023-03-22T10:07:11.793Z,26.84
2023-03-22T10:09:48.742Z,26.69
2023-03-22T10:12:26.369Z,26.91
2023-03-22T10:15:06.753Z,27.04
2023-03-22T10:17:37.712Z,26.93
2023-03-22T10:20:19.094Z,26.65
2023-03-22T10:22:52.773Z,26.81
2023-03-22T10:25:32.839Z,26.47
2023-03-22T10:28:01.340Z,26.06
2023-03-22T10:30:42.049Z,25.85
2023-03-22T10:33:17.846Z,25.81
2023-03-22T10:35:48.653Z,25.27
2023-03-22T10:38:25.330Z,25.60
2023-03-22T10:40:56.754Z,25.03
2023-03-22T10:43:33.144Z,25.35
2023-03-22T10:46:05.435Z,24.76
2023-03-22T10:48:37.584Z,24.88
2023-03-22T10:51:08.992Z,24.70
2023-03-22T10:53:41.488Z,24.43
2023-03-22T10:56:15.762Z,24.56
2023-03-22T10:58:44.353Z,24.68
2023-03-22T11:01:15.167Z,24.50
2023-03-22T11:03:49.815Z,24.42
2023-03-22T11:06:24.274Z,24.08
2023-03-22T11:08:54.885Z,23.82
2023-03-22T11:11:26.794Z,22.97
2023-03-22T11:14:01.834Z,23.26
2023-03-22T11:16:31.905Z,22.74
2023-03-22T11:19:03.335Z,23.04
2023-03-22T11:21:35.133Z,22.86
2023-03-22T11:24:08.250Z,22.85
2023-03-22T11:26:40.841Z,22.50
2023-03-22T11:29:17.613Z,22.34
2023-03-22T11:31:59.633Z,22.58
2023-03-22T11:34:31.758Z,22.49
2023-03-22T11:37:03.201Z,22.34
2023-03-22T11:39:31.694Z,22.18
2023-03-22T11:42:03.967Z,21.75
2023-03-22T11:44:38.079Z,21.68
2023-03-22T11:47:13.647Z,21.00
2023-03-22T11:49:48.160Z,20.23
2023-03-22T11:52:23.133Z,19.97
2023-03-22T11:54:52.745Z,19.39
2023-03-22T11:57:26.709Z,18.80
2023-03-22T12:00:01.838Z,18.58
2023-03-22T12:02:33.841Z,19.11
2023-03-22T12:05:11.833Z,18.83
2023-03-22T12:07:42.620Z,18.18
2023-03-22T12:10:16.946Z,18.06
2023-03-22T12:12:52.458Z,18.04
2023-03-22T12:15:25.385Z,17.39
2023-03-22T12:18:02.115Z,17.25
2023-03-22T12:20:42.020Z,17.02
2023-03-22T12:23:21.167Z,16.66
2023-03-22T12:25:54.895Z,16.69
2023-03-22T12:28:29.781Z,16.28
2023-03-22T12:31:00.319Z,16.21
2023-03-22T12:33:32.235Z,16.28
2023-03-22T12:36:03.829Z,15.74
2023-03-22T12:38:41.724Z,15.93
2023-03-22T12:41:16.191Z,15.85
2023-03-22T12:43:53.568Z,16.05
2023-03-22T12:46:27.899Z,16.19
2023-03-22T12:49:02.428Z,15.91
2023-03-22T12:51:30.891Z,15.79
2023-03-22T12:54:02.427Z,15.62
2023-03-22T12:56:39.811Z,15.48
2023-03-22T12:59:17.913Z,15.09
2023-03-22T13:01:53.717Z,15.14
2023-03-22T13:04:46.943Z,14.81
2023-03-22T13:07:32.128Z,14.78
2023-03-22T13:10:23.293Z,15.30
2023-03-22T13:13:15.627Z,15.33
2023-03-22T13:16:01.643Z,15.33
2023-03-22T13:18:39.389Z,15.38
2023-03-22T13:21:14.328Z,16.44
2023-03-22T13:24:00.631Z,16.18
2023-03-22T13:26:38.082Z,16.55
2023-03-22T13:29:17.358Z,16.73
2023-03-22T13:31:55.080Z,17.09
2023-03-22T13:34:32.578Z,17.05
2023-03-22T13:37:03.673Z,17.26
2023-03-22T13:39:36.100Z,17.22
2023-03-22T13:42:19.387Z,17.14
2023-03-22T13:44:58.683Z,16.91
2023-03-22T13:47:37.950Z,16.97
2023-03-22T13:50:17.187Z,17.14
2023-03-22T13:52:55.682Z,17.05
2023-03-22T13:55:58.257Z,16.75
2023-03-22T13:58:53.086Z,16.76
2023-03-22T14:01:30.810Z,17.13
2023-03-22T14:04:02.403Z,17.45
2023-03-22T14:06:34.844Z,17.57
2023-03-22T14:09:13.388Z,17.80
2023-03-22T14:11:48.840Z,18.20
2023-03-22T14:14:23.832Z,18.26
2023-03-22T14:17:00.101Z,18.57
2023-03-22T14:19:33.053Z,18.77
